sensor_id;sensor_type;location;lat;lon;timestamp;temperature;humidity
21495;DHT22;10909;53.590;10.054;2022-12-10T00:01:24;4.20;76.70
21495;DHT22;10909;53.590;10.054;2022-12-10T00:03:51;4.20;76.70
21495;DHT22;10909;53.590;10.054;2022-12-10T00:06:19;4.20;76.70
21495;DHT22;10909;53.590;10.054;2022-12-10T00:08:46;4.20;76.70
21495;DHT22;10909;53.590;10.054;2022-12-10T00:11:14;4.20;76.70
21495;DHT22;10909;53.590;10.054;2022-12-10T00:13:41;4.20;76.70
21495;DHT22;10909;53.590;10.054;2022-12-10T00:16:09;4.20;76.60
21495;DHT22;10909;53.590;10.054;2022-12-10T00:18:35;4.20;76.60
21495;DHT22;10909;53.590;10.054;2022-12-10T00:21:04;4.20;76.60
21495;DHT22;10909;53.590;10.054;2022-12-10T00:23:30;4.20;76.60
21495;DHT22;10909;53.590;10.054;2022-12-10T00:26:15;4.20;76.60
21495;DHT22;10909;53.590;10.054;2022-12-10T00:28:41;4.20;76.70
21495;DHT22;10909;53.590;10.054;2022-12-10T00:31:13;4.20;76.60
21495;DHT22;10909;53.590;10.054;2022-12-10T00:33:40;4.20;76.70
21495;DHT22;10909;53.590;10.054;2022-12-10T00:36:09;4.20;76.60
21495;DHT22;10909;53.590;10.054;2022-12-10T00:38:36;4.20;76.60
21495;DHT22;10909;53.590;10.054;2022-12-10T00:41:03;4.20;76.60
21495;DHT22;10909;53.590;10.054;2022-12-10T00:43:29;4.10;76.50
21495;DHT22;10909;53.590;10.054;2022-12-10T00:45:55;4.10;76.50
21495;DHT22;10909;53.590;10.054;2022-12-10T00:48:21;4.10;76.40
21495;DHT22;10909;53.590;10.054;2022-12-10T00:51:07;4.10;76.40
21495;DHT22;10909;53.590;10.054;2022-12-10T00:53:35;4.10;76.30
21495;DHT22;10909;53.590;10.054;2022-12-10T00:56:02;4.10;76.30
21495;DHT22;10909;53.590;10.054;2022-12-10T00:58:31;4.10;76.50
21495;DHT22;10909;53.590;10.054;2022-12-10T01:01:30;4.10;76.70
21495;DHT22;10909;53.590;10.054;2022-12-10T01:04:06;4.10;76.70
21495;DHT22;10909;53.590;10.054;2022-12-10T01:06:41;4.10;76.70
21495;DHT22;10909;53.590;10.054;2022-12-10T01:09:10;4.10;76.70
21495;DHT22;10909;53.590;10.054;2022-12-10T01:11:38;4.10;76.70
21495;DHT22;10909;53.590;10.054;2022-12-10T01:14:05;4.10;76.70
21495;DHT22;10909;53.590;10.054;2022-12-10T01:16:31;4.10;76.70
21495;DHT22;10909;53.590;10.054;2022-12-10T01:18:58;4.20;76.70
21495;DHT22;10909;53.590;10.054;2022-12-10T01:21:25;4.10;76.60
21495;DHT22;10909;53.590;10.054;2022-12-10T01:23:52;4.10;76.60
21495;DHT22;10909;53.590;10.054;2022-12-10T01:26:20;4.10;76.60
21495;DHT22;10909;53.590;10.054;2022-12-10T01:28:47;4.10;76.70
21495;DHT22;10909;53.590;10.054;2022-12-10T01:31:18;4.10;76.60
21495;DHT22;10909;53.590;10.054;2022-12-10T01:33:45;4.10;76.50
21495;DHT22;10909;53.590;10.054;2022-12-10T01:36:23;4.10;76.50
21495;DHT22;10909;53.590;10.054;2022-12-10T01:38:50;4.10;76.50
21495;DHT22;10909;53.590;10.054;2022-12-10T01:41:30;4.10;76.40
21495;DHT22;10909;53.590;10.054;2022-12-10T01:44:00;4.10;76.40
21495;DHT22;10909;53.590;10.054;2022-12-10T01:46:29;4.10;76.50
21495;DHT22;10909;53.590;10.054;2022-12-10T01:48:55;4.10;76.60
21495;DHT22;10909;53.590;10.054;2022-12-10T01:51:22;4.10;76.60
21495;DHT22;10909;53.590;10.054;2022-12-10T01:53:48;4.10;76.30
21495;DHT22;10909;53.590;10.054;2022-12-10T01:56:16;4.00;76.10
21495;DHT22;10909;53.590;10.054;2022-12-10T01:58:43;4.00;76.10
21495;DHT22;10909;53.590;10.054;2022-12-10T02:01:16;3.90;76.20
21495;DHT22;10909;53.590;10.054;2022-12-10T02:06:48;3.90;76.50
21495;DHT22;10909;53.590;10.054;2022-12-10T02:15:19;3.90;76.40
21495;DHT22;10909;53.590;10.054;2022-12-10T02:17:52;3.90;76.60
21495;DHT22;10909;53.590;10.054;2022-12-10T02:23:01;3.90;76.70
21495;DHT22;10909;53.590;10.054;2022-12-10T02:28:44;4.00;76.70
21495;DHT22;10909;53.590;10.054;2022-12-10T02:31:15;4.00;76.50
21495;DHT22;10909;53.590;10.054;2022-12-10T02:33:46;3.90;76.30
21495;DHT22;10909;53.590;10.054;2022-12-10T02:36:14;3.90;76.40
21495;DHT22;10909;53.590;10.054;2022-12-10T02:38:41;4.00;76.50
21495;DHT22;10909;53.590;10.054;2022-12-10T02:41:13;4.00;76.60
21495;DHT22;10909;53.590;10.054;2022-12-10T02:43:40;4.00;76.50
21495;DHT22;10909;53.590;10.054;2022-12-10T02:46:06;4.00;76.50
21495;DHT22;10909;53.590;10.054;2022-12-10T02:48:34;4.00;76.50
21495;DHT22;10909;53.590;10.054;2022-12-10T02:51:01;4.10;76.50
21495;DHT22;10909;53.590;10.054;2022-12-10T02:53:27;4.10;76.50
21495;DHT22;10909;53.590;10.054;2022-12-10T02:56:13;4.10;76.40
21495;DHT22;10909;53.590;10.054;2022-12-10T02:59:04;4.10;76.40
21495;DHT22;10909;53.590;10.054;2022-12-10T03:04:28;4.10;76.30
21495;DHT22;10909;53.590;10.054;2022-12-10T03:06:54;4.10;76.30
21495;DHT22;10909;53.590;10.054;2022-12-10T03:09:27;4.10;76.20
21495;DHT22;10909;53.590;10.054;2022-12-10T03:12:01;4.10;76.10
21495;DHT22;10909;53.590;10.054;2022-12-10T03:14:29;4.20;76.30
21495;DHT22;10909;53.590;10.054;2022-12-10T03:16:58;4.20;76.30
21495;DHT22;10909;53.590;10.054;2022-12-10T03:19:28;4.20;76.30
21495;DHT22;10909;53.590;10.054;2022-12-10T03:21:56;4.20;76.20
21495;DHT22;10909;53.590;10.054;2022-12-10T03:24:25;4.20;76.10
21495;DHT22;10909;53.590;10.054;2022-12-10T03:26:52;4.20;76.00
21495;DHT22;10909;53.590;10.054;2022-12-10T03:29:23;4.20;75.90
21495;DHT22;10909;53.590;10.054;2022-12-10T03:31:52;4.20;75.90
21495;DHT22;10909;53.590;10.054;2022-12-10T03:34:18;4.30;75.90
21495;DHT22;10909;53.590;10.054;2022-12-10T03:36:45;4.30;75.80
21495;DHT22;10909;53.590;10.054;2022-12-10T03:39:11;4.30;75.70
21495;DHT22;10909;53.590;10.054;2022-12-10T03:41:37;4.30;75.20
21495;DHT22;10909;53.590;10.054;2022-12-10T03:44:03;4.20;75.10
21495;DHT22;10909;53.590;10.054;2022-12-10T03:46:30;4.20;75.20
21495;DHT22;10909;53.590;10.054;2022-12-10T03:48:57;4.20;75.30
21495;DHT22;10909;53.590;10.054;2022-12-10T03:51:24;4.20;75.90
21495;DHT22;10909;53.590;10.054;2022-12-10T03:53:49;4.20;75.50
21495;DHT22;10909;53.590;10.054;2022-12-10T03:56:17;4.20;75.50
21495;DHT22;10909;53.590;10.054;2022-12-10T03:58:42;4.20;75.60
21495;DHT22;10909;53.590;10.054;2022-12-10T04:01:09;4.20;75.50
21495;DHT22;10909;53.590;10.054;2022-12-10T04:03:39;4.20;75.50
21495;DHT22;10909;53.590;10.054;2022-12-10T04:06:08;4.20;75.40
21495;DHT22;10909;53.590;10.054;2022-12-10T04:08:35;4.30;75.40
21495;DHT22;10909;53.590;10.054;2022-12-10T04:11:06;4.30;75.50
21495;DHT22;10909;53.590;10.054;2022-12-10T04:13:34;4.30;75.40
21495;DHT22;10909;53.590;10.054;2022-12-10T04:16:18;4.30;75.30
21495;DHT22;10909;53.590;10.054;2022-12-10T04:19:09;4.30;75.10
21495;DHT22;10909;53.590;10.054;2022-12-10T04:21:36;4.30;75.00
21495;DHT22;10909;53.590;10.054;2022-12-10T04:24:23;4.30;75.10
21495;DHT22;10909;53.590;10.054;2022-12-10T04:27:31;4.30;75.00
21495;DHT22;10909;53.590;10.054;2022-12-10T04:29:56;4.30;75.00
21495;DHT22;10909;53.590;10.054;2022-12-10T04:32:23;4.30;75.10
21495;DHT22;10909;53.590;10.054;2022-12-10T04:34:49;4.30;75.10
21495;DHT22;10909;53.590;10.054;2022-12-10T04:37:18;4.30;75.10
21495;DHT22;10909;53.590;10.054;2022-12-10T04:39:44;4.20;75.20
21495;DHT22;10909;53.590;10.054;2022-12-10T04:42:10;4.30;75.10
21495;DHT22;10909;53.590;10.054;2022-12-10T04:44:37;4.30;75.00
21495;DHT22;10909;53.590;10.054;2022-12-10T04:47:04;4.30;74.90
21495;DHT22;10909;53.590;10.054;2022-12-10T04:49:30;4.30;75.70
21495;DHT22;10909;53.590;10.054;2022-12-10T04:51:55;4.30;74.60
21495;DHT22;10909;53.590;10.054;2022-12-10T04:54:21;4.30;74.60
21495;DHT22;10909;53.590;10.054;2022-12-10T04:56:47;4.30;74.70
21495;DHT22;10909;53.590;10.054;2022-12-10T04:59:15;4.20;74.60
21495;DHT22;10909;53.590;10.054;2022-12-10T05:01:41;4.20;74.60
21495;DHT22;10909;53.590;10.054;2022-12-10T05:04:09;4.20;74.60
21495;DHT22;10909;53.590;10.054;2022-12-10T05:06:35;4.20;74.70
21495;DHT22;10909;53.590;10.054;2022-12-10T05:09:04;4.20;74.80
21495;DHT22;10909;53.590;10.054;2022-12-10T05:11:30;4.20;74.60
21495;DHT22;10909;53.590;10.054;2022-12-10T05:13:57;4.20;74.70
21495;DHT22;10909;53.590;10.054;2022-12-10T05:16:26;4.20;74.70
21495;DHT22;10909;53.590;10.054;2022-12-10T05:18:52;4.20;74.90
21495;DHT22;10909;53.590;10.054;2022-12-10T05:21:19;4.20;74.30
21495;DHT22;10909;53.590;10.054;2022-12-10T05:23:49;4.20;73.90
21495;DHT22;10909;53.590;10.054;2022-12-10T05:26:17;4.10;73.80
21495;DHT22;10909;53.590;10.054;2022-12-10T05:28:45;4.10;73.90
21495;DHT22;10909;53.590;10.054;2022-12-10T05:31:19;4.00;74.00
21495;DHT22;10909;53.590;10.054;2022-12-10T05:33:45;4.00;74.20
21495;DHT22;10909;53.590;10.054;2022-12-10T05:36:13;4.00;74.50
21495;DHT22;10909;53.590;10.054;2022-12-10T05:38:40;4.00;74.60
21495;DHT22;10909;53.590;10.054;2022-12-10T05:41:11;3.90;74.60
21495;DHT22;10909;53.590;10.054;2022-12-10T05:43:37;4.00;74.70
21495;DHT22;10909;53.590;10.054;2022-12-10T05:46:09;4.00;74.70
21495;DHT22;10909;53.590;10.054;2022-12-10T05:48:35;4.00;74.70
21495;DHT22;10909;53.590;10.054;2022-12-10T05:51:09;4.00;74.80
21495;DHT22;10909;53.590;10.054;2022-12-10T05:53:37;4.00;74.80
21495;DHT22;10909;53.590;10.054;2022-12-10T05:56:04;4.00;74.70
21495;DHT22;10909;53.590;10.054;2022-12-10T05:58:31;4.00;74.50
21495;DHT22;10909;53.590;10.054;2022-12-10T06:00:57;4.00;74.50
21495;DHT22;10909;53.590;10.054;2022-12-10T06:03:24;4.00;74.50
21495;DHT22;10909;53.590;10.054;2022-12-10T06:05:52;4.00;74.40
21495;DHT22;10909;53.590;10.054;2022-12-10T06:08:17;3.90;74.20
21495;DHT22;10909;53.590;10.054;2022-12-10T06:10:43;3.90;74.20
21495;DHT22;10909;53.590;10.054;2022-12-10T06:13:09;3.90;74.30
21495;DHT22;10909;53.590;10.054;2022-12-10T06:15:39;3.90;74.40
21495;DHT22;10909;53.590;10.054;2022-12-10T06:18:05;3.90;74.50
21495;DHT22;10909;53.590;10.054;2022-12-10T06:20:32;3.90;74.40
21495;DHT22;10909;53.590;10.054;2022-12-10T06:22:58;3.80;74.30
21495;DHT22;10909;53.590;10.054;2022-12-10T06:25:23;3.80;74.20
21495;DHT22;10909;53.590;10.054;2022-12-10T06:27:49;3.80;74.40
21495;DHT22;10909;53.590;10.054;2022-12-10T06:30:15;3.80;74.50
21495;DHT22;10909;53.590;10.054;2022-12-10T06:32:41;3.80;74.40
21495;DHT22;10909;53.590;10.054;2022-12-10T06:35:09;3.70;74.40
21495;DHT22;10909;53.590;10.054;2022-12-10T06:37:35;3.80;74.30
21495;DHT22;10909;53.590;10.054;2022-12-10T06:40:05;3.70;74.30
21495;DHT22;10909;53.590;10.054;2022-12-10T06:42:30;3.70;74.40
21495;DHT22;10909;53.590;10.054;2022-12-10T06:44:56;3.70;74.60
21495;DHT22;10909;53.590;10.054;2022-12-10T06:47:23;3.70;74.70
21495;DHT22;10909;53.590;10.054;2022-12-10T06:49:49;3.70;74.80
21495;DHT22;10909;53.590;10.054;2022-12-10T06:52:15;3.70;74.80
21495;DHT22;10909;53.590;10.054;2022-12-10T06:54:41;3.70;75.00
21495;DHT22;10909;53.590;10.054;2022-12-10T06:57:07;3.70;74.90
21495;DHT22;10909;53.590;10.054;2022-12-10T06:59:33;3.70;74.90
21495;DHT22;10909;53.590;10.054;2022-12-10T07:01:58;3.70;74.80
21495;DHT22;10909;53.590;10.054;2022-12-10T07:04:24;3.70;74.70
21495;DHT22;10909;53.590;10.054;2022-12-10T07:06:50;3.80;74.40
21495;DHT22;10909;53.590;10.054;2022-12-10T07:09:16;3.70;74.20
21495;DHT22;10909;53.590;10.054;2022-12-10T07:11:42;3.70;74.30
21495;DHT22;10909;53.590;10.054;2022-12-10T07:14:11;3.70;74.40
21495;DHT22;10909;53.590;10.054;2022-12-10T07:16:38;3.60;75.20
21495;DHT22;10909;53.590;10.054;2022-12-10T07:19:04;3.60;74.50
21495;DHT22;10909;53.590;10.054;2022-12-10T07:21:32;3.60;74.60
21495;DHT22;10909;53.590;10.054;2022-12-10T07:24:06;3.70;74.70
21495;DHT22;10909;53.590;10.054;2022-12-10T07:26:38;3.70;74.80
21495;DHT22;10909;53.590;10.054;2022-12-10T07:29:06;3.70;74.80
21495;DHT22;10909;53.590;10.054;2022-12-10T07:31:32;3.70;74.80
21495;DHT22;10909;53.590;10.054;2022-12-10T07:33:58;3.70;74.70
21495;DHT22;10909;53.590;10.054;2022-12-10T07:36:25;3.60;75.30
21495;DHT22;10909;53.590;10.054;2022-12-10T07:38:52;3.60;74.50
21495;DHT22;10909;53.590;10.054;2022-12-10T07:41:18;3.70;74.60
21495;DHT22;10909;53.590;10.054;2022-12-10T07:43:44;3.60;74.50
21495;DHT22;10909;53.590;10.054;2022-12-10T07:46:22;3.60;74.60
21495;DHT22;10909;53.590;10.054;2022-12-10T07:48:49;3.60;74.60
21495;DHT22;10909;53.590;10.054;2022-12-10T07:51:16;3.70;74.70
21495;DHT22;10909;53.590;10.054;2022-12-10T07:53:43;3.60;74.70
21495;DHT22;10909;53.590;10.054;2022-12-10T07:56:09;3.60;74.80
21495;DHT22;10909;53.590;10.054;2022-12-10T07:58:36;3.60;74.80
21495;DHT22;10909;53.590;10.054;2022-12-10T08:01:13;3.60;74.70
21495;DHT22;10909;53.590;10.054;2022-12-10T08:03:39;3.60;74.70
21495;DHT22;10909;53.590;10.054;2022-12-10T08:06:08;3.60;74.50
21495;DHT22;10909;53.590;10.054;2022-12-10T08:08:35;3.60;74.60
21495;DHT22;10909;53.590;10.054;2022-12-10T08:11:02;3.50;74.50
21495;DHT22;10909;53.590;10.054;2022-12-10T08:13:28;3.60;74.40
21495;DHT22;10909;53.590;10.054;2022-12-10T08:16:00;3.50;74.60
21495;DHT22;10909;53.590;10.054;2022-12-10T08:18:27;3.50;74.60
21495;DHT22;10909;53.590;10.054;2022-12-10T08:20:53;3.50;74.70
21495;DHT22;10909;53.590;10.054;2022-12-10T08:23:18;3.60;74.70
21495;DHT22;10909;53.590;10.054;2022-12-10T08:25:44;3.60;74.70
21495;DHT22;10909;53.590;10.054;2022-12-10T08:28:10;3.50;74.80
21495;DHT22;10909;53.590;10.054;2022-12-10T08:30:35;3.50;75.00
21495;DHT22;10909;53.590;10.054;2022-12-10T08:33:01;3.50;74.90
21495;DHT22;10909;53.590;10.054;2022-12-10T08:35:26;3.50;75.00
21495;DHT22;10909;53.590;10.054;2022-12-10T08:37:52;3.50;75.10
21495;DHT22;10909;53.590;10.054;2022-12-10T08:40:18;3.50;75.20
21495;DHT22;10909;53.590;10.054;2022-12-10T08:42:43;3.50;75.10
21495;DHT22;10909;53.590;10.054;2022-12-10T08:45:09;3.50;75.00
21495;DHT22;10909;53.590;10.054;2022-12-10T08:47:35;3.60;75.00
21495;DHT22;10909;53.590;10.054;2022-12-10T08:50:00;3.60;75.00
21495;DHT22;10909;53.590;10.054;2022-12-10T08:52:27;3.60;75.00
21495;DHT22;10909;53.590;10.054;2022-12-10T08:54:54;3.60;74.90
21495;DHT22;10909;53.590;10.054;2022-12-10T08:57:20;3.60;74.90
21495;DHT22;10909;53.590;10.054;2022-12-10T08:59:45;3.70;75.00
21495;DHT22;10909;53.590;10.054;2022-12-10T09:02:11;3.60;74.20
21495;DHT22;10909;53.590;10.054;2022-12-10T09:04:37;3.60;74.10
21495;DHT22;10909;53.590;10.054;2022-12-10T09:07:04;3.50;74.10
21495;DHT22;10909;53.590;10.054;2022-12-10T09:09:31;3.50;74.40
21495;DHT22;10909;53.590;10.054;2022-12-10T09:11:57;3.50;74.50
21495;DHT22;10909;53.590;10.054;2022-12-10T09:14:23;3.60;74.50
21495;DHT22;10909;53.590;10.054;2022-12-10T09:16:49;3.50;74.40
21495;DHT22;10909;53.590;10.054;2022-12-10T09:19:15;3.50;74.50
21495;DHT22;10909;53.590;10.054;2022-12-10T09:21:41;3.50;74.50
21495;DHT22;10909;53.590;10.054;2022-12-10T09:24:08;3.40;74.40
21495;DHT22;10909;53.590;10.054;2022-12-10T09:26:34;3.40;74.30
21495;DHT22;10909;53.590;10.054;2022-12-10T09:29:00;3.40;74.50
21495;DHT22;10909;53.590;10.054;2022-12-10T09:31:27;3.40;74.70
21495;DHT22;10909;53.590;10.054;2022-12-10T09:33:54;3.40;74.70
21495;DHT22;10909;53.590;10.054;2022-12-10T09:36:21;3.50;74.70
21495;DHT22;10909;53.590;10.054;2022-12-10T09:38:48;3.40;74.70
21495;DHT22;10909;53.590;10.054;2022-12-10T09:44:46;3.50;74.60
21495;DHT22;10909;53.590;10.054;2022-12-10T09:47:16;3.50;74.70
21495;DHT22;10909;53.590;10.054;2022-12-10T09:52:25;3.70;74.40
21495;DHT22;10909;53.590;10.054;2022-12-10T09:54:57;3.60;74.40
21495;DHT22;10909;53.590;10.054;2022-12-10T09:57:32;3.60;74.40
21495;DHT22;10909;53.590;10.054;2022-12-10T10:00:15;3.60;74.30
21495;DHT22;10909;53.590;10.054;2022-12-10T10:02:43;3.60;74.30
21495;DHT22;10909;53.590;10.054;2022-12-10T10:05:11;3.60;74.10
21495;DHT22;10909;53.590;10.054;2022-12-10T10:07:53;3.60;74.00
21495;DHT22;10909;53.590;10.054;2022-12-10T10:10:32;3.70;74.00
21495;DHT22;10909;53.590;10.054;2022-12-10T10:13:19;3.60;74.00
21495;DHT22;10909;53.590;10.054;2022-12-10T10:15:50;3.60;73.90
21495;DHT22;10909;53.590;10.054;2022-12-10T10:18:38;3.60;73.80
21495;DHT22;10909;53.590;10.054;2022-12-10T10:21:16;3.60;73.80
21495;DHT22;10909;53.590;10.054;2022-12-10T10:23:45;3.60;73.80
21495;DHT22;10909;53.590;10.054;2022-12-10T10:26:10;3.60;73.80
21495;DHT22;10909;53.590;10.054;2022-12-10T10:28:38;3.70;73.80
21495;DHT22;10909;53.590;10.054;2022-12-10T10:31:16;3.70;73.70
21495;DHT22;10909;53.590;10.054;2022-12-10T10:33:52;3.70;73.60
21495;DHT22;10909;53.590;10.054;2022-12-10T10:36:34;3.70;73.50
21495;DHT22;10909;53.590;10.054;2022-12-10T10:41:44;3.70;73.40
21495;DHT22;10909;53.590;10.054;2022-12-10T10:44:22;3.70;73.30
21495;DHT22;10909;53.590;10.054;2022-12-10T10:46:54;3.70;73.10
21495;DHT22;10909;53.590;10.054;2022-12-10T10:49:31;3.70;73.20
21495;DHT22;10909;53.590;10.054;2022-12-10T10:52:16;3.70;73.00
21495;DHT22;10909;53.590;10.054;2022-12-10T10:54:44;3.70;73.20
21495;DHT22;10909;53.590;10.054;2022-12-10T10:57:27;3.80;73.30
21495;DHT22;10909;53.590;10.054;2022-12-10T11:00:05;3.70;73.30
21495;DHT22;10909;53.590;10.054;2022-12-10T11:02:38;3.80;73.30
21495;DHT22;10909;53.590;10.054;2022-12-10T11:05:21;3.80;73.30
21495;DHT22;10909;53.590;10.054;2022-12-10T11:07:59;3.80;73.30
21495;DHT22;10909;53.590;10.054;2022-12-10T11:10:26;3.90;73.30
21495;DHT22;10909;53.590;10.054;2022-12-10T11:12:57;3.90;73.30
21495;DHT22;10909;53.590;10.054;2022-12-10T11:15:41;3.90;73.20
21495;DHT22;10909;53.590;10.054;2022-12-10T11:18:41;3.90;73.00
21495;DHT22;10909;53.590;10.054;2022-12-10T11:23:41;3.90;73.00
21495;DHT22;10909;53.590;10.054;2022-12-10T11:29:35;3.90;72.60
21495;DHT22;10909;53.590;10.054;2022-12-10T11:32:14;3.90;72.50
21495;DHT22;10909;53.590;10.054;2022-12-10T11:34:58;3.80;72.50
21495;DHT22;10909;53.590;10.054;2022-12-10T11:40:41;3.80;72.50
21495;DHT22;10909;53.590;10.054;2022-12-10T11:43:35;3.70;72.60
21495;DHT22;10909;53.590;10.054;2022-12-10T11:46:26;3.70;72.70
21495;DHT22;10909;53.590;10.054;2022-12-10T12:02:58;3.70;72.60
21495;DHT22;10909;53.590;10.054;2022-12-10T12:05:59;3.70;72.70
21495;DHT22;10909;53.590;10.054;2022-12-10T12:17:31;3.70;72.80
21495;DHT22;10909;53.590;10.054;2022-12-10T12:20:24;3.80;72.90
21495;DHT22;10909;53.590;10.054;2022-12-10T12:23:19;3.70;72.90
21495;DHT22;10909;53.590;10.054;2022-12-10T12:25:48;3.70;72.80
21495;DHT22;10909;53.590;10.054;2022-12-10T12:28:35;3.70;72.60
21495;DHT22;10909;53.590;10.054;2022-12-10T12:31:10;3.70;72.60
21495;DHT22;10909;53.590;10.054;2022-12-10T12:34:23;3.70;72.70
21495;DHT22;10909;53.590;10.054;2022-12-10T12:36:41;3.70;72.70
21495;DHT22;10909;53.590;10.054;2022-12-10T12:44:22;3.70;72.20
21495;DHT22;10909;53.590;10.054;2022-12-10T12:46:51;3.60;72.10
21495;DHT22;10909;53.590;10.054;2022-12-10T12:49:30;3.60;71.80
21495;DHT22;10909;53.590;10.054;2022-12-10T12:52:13;3.50;71.90
21495;DHT22;10909;53.590;10.054;2022-12-10T12:54:45;3.50;72.00
21495;DHT22;10909;53.590;10.054;2022-12-10T12:57:53;3.50;72.50
21495;DHT22;10909;53.590;10.054;2022-12-10T13:00:22;3.50;72.70
21495;DHT22;10909;53.590;10.054;2022-12-10T13:05:32;3.50;72.90
21495;DHT22;10909;53.590;10.054;2022-12-10T13:15:54;3.60;72.70
21495;DHT22;10909;53.590;10.054;2022-12-10T13:18:34;3.70;72.90
21495;DHT22;10909;53.590;10.054;2022-12-10T13:23:53;3.70;72.60
21495;DHT22;10909;53.590;10.054;2022-12-10T13:26:27;3.70;72.40
21495;DHT22;10909;53.590;10.054;2022-12-10T13:28:55;3.70;72.50
21495;DHT22;10909;53.590;10.054;2022-12-10T13:50:04;3.80;72.30
21495;DHT22;10909;53.590;10.054;2022-12-10T13:52:39;3.80;72.40
21495;DHT22;10909;53.590;10.054;2022-12-10T14:03:42;3.80;72.20
21495;DHT22;10909;53.590;10.054;2022-12-10T14:06:24;3.90;72.10
21495;DHT22;10909;53.590;10.054;2022-12-10T14:11:35;3.80;72.10
21495;DHT22;10909;53.590;10.054;2022-12-10T14:14:02;3.80;72.30
21495;DHT22;10909;53.590;10.054;2022-12-10T14:16:31;3.80;72.30
21495;DHT22;10909;53.590;10.054;2022-12-10T14:19:04;3.80;72.30
21495;DHT22;10909;53.590;10.054;2022-12-10T14:21:36;3.80;72.30
21495;DHT22;10909;53.590;10.054;2022-12-10T14:24:04;3.80;72.20
21495;DHT22;10909;53.590;10.054;2022-12-10T14:26:35;3.80;71.90
21495;DHT22;10909;53.590;10.054;2022-12-10T14:29:19;3.80;71.70
21495;DHT22;10909;53.590;10.054;2022-12-10T14:31:49;3.80;71.60
21495;DHT22;10909;53.590;10.054;2022-12-10T14:34:18;3.70;71.40
21495;DHT22;10909;53.590;10.054;2022-12-10T14:36:51;3.70;71.20
21495;DHT22;10909;53.590;10.054;2022-12-10T14:39:21;3.70;71.20
21495;DHT22;10909;53.590;10.054;2022-12-10T14:41:51;3.60;71.30
21495;DHT22;10909;53.590;10.054;2022-12-10T14:44:18;3.60;71.40
21495;DHT22;10909;53.590;10.054;2022-12-10T14:46:47;3.50;71.40
21495;DHT22;10909;53.590;10.054;2022-12-10T14:49:26;3.50;71.70
21495;DHT22;10909;53.590;10.054;2022-12-10T14:51:52;3.50;72.00
21495;DHT22;10909;53.590;10.054;2022-12-10T14:54:30;3.50;72.10
21495;DHT22;10909;53.590;10.054;2022-12-10T14:57:00;3.60;72.10
21495;DHT22;10909;53.590;10.054;2022-12-10T14:59:42;3.50;72.10
21495;DHT22;10909;53.590;10.054;2022-12-10T15:02:29;3.60;72.20
21495;DHT22;10909;53.590;10.054;2022-12-10T15:04:56;3.60;72.20
21495;DHT22;10909;53.590;10.054;2022-12-10T15:07:27;3.60;72.30
21495;DHT22;10909;53.590;10.054;2022-12-10T15:09:56;3.70;72.30
21495;DHT22;10909;53.590;10.054;2022-12-10T15:12:49;3.70;72.20
21495;DHT22;10909;53.590;10.054;2022-12-10T15:18:16;3.70;71.90
21495;DHT22;10909;53.590;10.054;2022-12-10T15:20:50;3.80;71.70
21495;DHT22;10909;53.590;10.054;2022-12-10T15:23:23;3.70;71.60
21495;DHT22;10909;53.590;10.054;2022-12-10T15:25:59;3.70;71.60
21495;DHT22;10909;53.590;10.054;2022-12-10T15:28:34;3.70;71.50
21495;DHT22;10909;53.590;10.054;2022-12-10T15:31:12;3.70;71.40
21495;DHT22;10909;53.590;10.054;2022-12-10T15:33:48;3.70;71.50
21495;DHT22;10909;53.590;10.054;2022-12-10T15:36:34;3.60;71.50
21495;DHT22;10909;53.590;10.054;2022-12-10T15:41:55;3.60;71.70
21495;DHT22;10909;53.590;10.054;2022-12-10T15:47:19;3.60;71.70
21495;DHT22;10909;53.590;10.054;2022-12-10T15:49:46;3.60;71.70
21495;DHT22;10909;53.590;10.054;2022-12-10T15:52:14;3.60;71.20
21495;DHT22;10909;53.590;10.054;2022-12-10T15:54:42;3.50;71.00
21495;DHT22;10909;53.590;10.054;2022-12-10T15:57:17;3.50;71.10
21495;DHT22;10909;53.590;10.054;2022-12-10T15:59:43;3.40;71.00
21495;DHT22;10909;53.590;10.054;2022-12-10T16:02:24;3.40;71.10
21495;DHT22;10909;53.590;10.054;2022-12-10T16:04:52;3.40;71.30
21495;DHT22;10909;53.590;10.054;2022-12-10T16:07:18;3.30;71.40
21495;DHT22;10909;53.590;10.054;2022-12-10T16:09:45;3.30;71.70
21495;DHT22;10909;53.590;10.054;2022-12-10T16:12:12;3.30;72.00
21495;DHT22;10909;53.590;10.054;2022-12-10T16:14:39;3.30;72.20
21495;DHT22;10909;53.590;10.054;2022-12-10T16:17:06;3.40;72.20
21495;DHT22;10909;53.590;10.054;2022-12-10T16:19:32;3.40;72.30
21495;DHT22;10909;53.590;10.054;2022-12-10T16:21:59;3.40;72.20
21495;DHT22;10909;53.590;10.054;2022-12-10T16:24:25;3.40;72.00
21495;DHT22;10909;53.590;10.054;2022-12-10T16:26:50;3.40;71.90
21495;DHT22;10909;53.590;10.054;2022-12-10T16:29:16;3.40;71.80
21495;DHT22;10909;53.590;10.054;2022-12-10T16:31:45;3.40;71.60
21495;DHT22;10909;53.590;10.054;2022-12-10T16:34:11;3.30;71.60
21495;DHT22;10909;53.590;10.054;2022-12-10T16:36:36;3.40;71.80
21495;DHT22;10909;53.590;10.054;2022-12-10T16:39:02;3.40;71.90
21495;DHT22;10909;53.590;10.054;2022-12-10T16:41:28;3.40;72.00
21495;DHT22;10909;53.590;10.054;2022-12-10T16:43:54;3.50;72.00
21495;DHT22;10909;53.590;10.054;2022-12-10T16:46:20;3.40;71.80
21495;DHT22;10909;53.590;10.054;2022-12-10T16:48:46;3.40;71.70
21495;DHT22;10909;53.590;10.054;2022-12-10T16:51:24;3.50;71.60
21495;DHT22;10909;53.590;10.054;2022-12-10T16:53:51;3.50;71.50
21495;DHT22;10909;53.590;10.054;2022-12-10T16:56:17;3.50;71.50
21495;DHT22;10909;53.590;10.054;2022-12-10T16:58:43;3.40;71.60
21495;DHT22;10909;53.590;10.054;2022-12-10T17:01:16;3.40;71.30
21495;DHT22;10909;53.590;10.054;2022-12-10T17:03:43;3.40;71.40
21495;DHT22;10909;53.590;10.054;2022-12-10T17:06:09;3.40;71.50
21495;DHT22;10909;53.590;10.054;2022-12-10T17:08:36;3.30;71.60
21495;DHT22;10909;53.590;10.054;2022-12-10T17:11:26;3.30;71.30
21495;DHT22;10909;53.590;10.054;2022-12-10T17:16:45;3.30;71.20
21495;DHT22;10909;53.590;10.054;2022-12-10T17:19:12;3.20;71.50
21495;DHT22;10909;53.590;10.054;2022-12-10T17:21:38;3.20;71.80
21495;DHT22;10909;53.590;10.054;2022-12-10T17:24:04;3.20;72.00
21495;DHT22;10909;53.590;10.054;2022-12-10T17:26:31;3.30;72.00
21495;DHT22;10909;53.590;10.054;2022-12-10T17:29:13;3.30;71.80
21495;DHT22;10909;53.590;10.054;2022-12-10T17:31:39;3.30;71.60
21495;DHT22;10909;53.590;10.054;2022-12-10T17:34:06;3.30;71.80
21495;DHT22;10909;53.590;10.054;2022-12-10T17:36:32;3.20;71.90
21495;DHT22;10909;53.590;10.054;2022-12-10T17:38:58;3.20;71.90
21495;DHT22;10909;53.590;10.054;2022-12-10T17:41:24;3.30;71.90
21495;DHT22;10909;53.590;10.054;2022-12-10T17:43:50;3.20;71.70
21495;DHT22;10909;53.590;10.054;2022-12-10T17:46:18;3.30;71.80
21495;DHT22;10909;53.590;10.054;2022-12-10T17:48:45;3.30;71.80